sensor_id;sensor_type;location;lat;lon;timestamp;pressure;altitude;pressure_sealevel;temperature;humidity
43147;BME280;28752;48.266;7.402;2023-04-08T00:02:09;99774.75;;;8.74;100.00
43147;BME280;28752;48.266;7.402;2023-04-08T00:04:35;99778.81;;;8.78;100.00
43147;BME280;28752;48.266;7.402;2023-04-08T00:07:00;99772.44;;;8.80;100.00
43147;BME280;28752;48.266;7.402;2023-04-08T00:09:25;99774.81;;;8.83;100.00
43147;BME280;28752;48.266;7.402;2023-04-08T00:11:51;99776.50;;;8.84;100.00
43147;BME280;28752;48.266;7.402;2023-04-08T00:14:17;99777.47;;;8.83;100.00
43147;BME280;28752;48.266;7.402;2023-04-08T00:16:42;99774.69;;;8.85;100.00
43147;BME280;28752;48.266;7.402;2023-04-08T00:19:07;99777.34;;;8.85;100.00
43147;BME280;28752;48.266;7.402;2023-04-08T00:21:33;99777.47;;;8.83;100.00
43147;BME280;28752;48.266;7.402;2023-04-08T00:23:58;99765.75;;;8.76;100.00
43147;BME280;28752;48.266;7.402;2023-04-08T00:26:23;99742.66;;;8.57;100.00
43147;BME280;28752;48.266;7.402;2023-04-08T00:28:50;99772.56;;;8.79;100.00
43147;BME280;28752;48.266;7.402;2023-04-08T00:31:15;99772.81;;;8.76;100.00
43147;BME280;28752;48.266;7.402;2023-04-08T00:33:41;99773.53;;;8.78;100.00
43147;BME280;28752;48.266;7.402;2023-04-08T00:36:06;99766.38;;;8.68;100.00
43147;BME280;28752;48.266;7.402;2023-04-08T00:38:32;99762.69;;;8.60;100.00
43147;BME280;28752;48.266;7.402;2023-04-08T00:40:57;99765.19;;;8.61;100.00
43147;BME280;28752;48.266;7.402;2023-04-08T00:43:22;99768.09;;;8.58;100.00
43147;BME280;28752;48.266;7.402;2023-04-08T00:45:48;99767.34;;;8.56;100.00
43147;BME280;28752;48.266;7.402;2023-04-08T00:48:14;99769.75;;;8.59;100.00
43147;BME280;28752;48.266;7.402;2023-04-08T00:50:39;99775.63;;;8.63;100.00
43147;BME280;28752;48.266;7.402;2023-04-08T00:53:06;99773.25;;;8.60;100.00
43147;BME280;28752;48.266;7.402;2023-04-08T00:55:32;99771.81;;;8.56;100.00
43147;BME280;28752;48.266;7.402;2023-04-08T00:57:57;99775.53;;;8.53;100.00
43147;BME280;28752;48.266;7.402;2023-04-08T01:00:23;99772.44;;;8.48;100.00
43147;BME280;28752;48.266;7.402;2023-04-08T01:08:28;99770.13;;;8.32;100.00
43147;BME280;28752;48.266;7.402;2023-04-08T01:10:58;99767.16;;;8.25;100.00
43147;BME280;28752;48.266;7.402;2023-04-08T01:13:29;99765.25;;;8.16;100.00
43147;BME280;28752;48.266;7.402;2023-04-08T01:15:55;99765.16;;;8.06;100.00
43147;BME280;28752;48.266;7.402;2023-04-08T01:18:21;99772.47;;;8.03;100.00
43147;BME280;28752;48.266;7.402;2023-04-08T01:20:49;99769.38;;;7.97;100.00
43147;BME280;28752;48.266;7.402;2023-04-08T01:23:35;99738.94;;;7.82;100.00
43147;BME280;28752;48.266;7.402;2023-04-08T01:26:03;99767.69;;;7.85;100.00
43147;BME280;28752;48.266;7.402;2023-04-08T01:28:29;99767.69;;;7.85;100.00
43147;BME280;28752;48.266;7.402;2023-04-08T01:30:57;99778.13;;;7.87;100.00
43147;BME280;28752;48.266;7.402;2023-04-08T01:33:23;99774.88;;;7.83;100.00
43147;BME280;28752;48.266;7.402;2023-04-08T01:35:50;99769.72;;;7.81;100.00
43147;BME280;28752;48.266;7.402;2023-04-08T01:38:19;99769.59;;;7.83;100.00
43147;BME280;28752;48.266;7.402;2023-04-08T01:40:45;99764.56;;;7.80;100.00
43147;BME280;28752;48.266;7.402;2023-04-08T01:43:15;99751.00;;;7.62;100.00
43147;BME280;28752;48.266;7.402;2023-04-08T01:45:43;99775.09;;;7.80;100.00
43147;BME280;28752;48.266;7.402;2023-04-08T01:48:11;99755.94;;;7.67;100.00
43147;BME280;28752;48.266;7.402;2023-04-08T01:50:37;99769.38;;;7.75;100.00
43147;BME280;28752;48.266;7.402;2023-04-08T01:53:05;99776.31;;;7.76;100.00
43147;BME280;28752;48.266;7.402;2023-04-08T01:55:33;99782.19;;;7.79;100.00
43147;BME280;28752;48.266;7.402;2023-04-08T01:57:59;99776.66;;;7.82;100.00
43147;BME280;28752;48.266;7.402;2023-04-08T02:00:27;99783.75;;;7.82;100.00
43147;BME280;28752;48.266;7.402;2023-04-08T02:02:54;99770.31;;;7.74;100.00
43147;BME280;28752;48.266;7.402;2023-04-08T02:05:19;99782.06;;;7.81;100.00
43147;BME280;28752;48.266;7.402;2023-04-08T02:07:47;99784.59;;;7.82;100.00
43147;BME280;28752;48.266;7.402;2023-04-08T02:10:12;99783.50;;;7.74;100.00
43147;BME280;28752;48.266;7.402;2023-04-08T02:12:38;99790.09;;;7.79;100.00
43147;BME280;28752;48.266;7.402;2023-04-08T02:15:03;99789.25;;;7.79;100.00
43147;BME280;28752;48.266;7.402;2023-04-08T02:17:45;99774.97;;;7.81;100.00
43147;BME280;28752;48.266;7.402;2023-04-08T02:22:48;99787.94;;;7.85;100.00
43147;BME280;28752;48.266;7.402;2023-04-08T02:25:16;99789.72;;;7.84;100.00
43147;BME280;28752;48.266;7.402;2023-04-08T02:27:43;99788.44;;;7.90;100.00
43147;BME280;28752;48.266;7.402;2023-04-08T02:30:10;99785.16;;;7.86;100.00
43147;BME280;28752;48.266;7.402;2023-04-08T02:32:37;99783.00;;;7.80;100.00
43147;BME280;28752;48.266;7.402;2023-04-08T02:35:04;99787.22;;;7.82;100.00
43147;BME280;28752;48.266;7.402;2023-04-08T02:37:30;99782.91;;;7.70;100.00
43147;BME280;28752;48.266;7.402;2023-04-08T02:39:56;99788.16;;;7.81;100.00
43147;BME280;28752;48.266;7.402;2023-04-08T02:42:22;99776.53;;;7.73;100.00
43147;BME280;28752;48.266;7.402;2023-04-08T02:44:47;99770.69;;;7.80;100.00
43147;BME280;28752;48.266;7.402;2023-04-08T02:47:13;99766.84;;;7.85;100.00
43147;BME280;28752;48.266;7.402;2023-04-08T02:49:38;99785.66;;;7.91;100.00
43147;BME280;28752;48.266;7.402;2023-04-08T02:52:04;99787.44;;;7.91;100.00
43147;BME280;28752;48.266;7.402;2023-04-08T02:54:29;99781.59;;;7.87;100.00
43147;BME280;28752;48.266;7.402;2023-04-08T02:56:55;99784.22;;;7.87;100.00
43147;BME280;28752;48.266;7.402;2023-04-08T02:59:20;99785.16;;;7.86;100.00
43147;BME280;28752;48.266;7.402;2023-04-08T03:01:46;99783.50;;;7.62;100.00
43147;BME280;28752;48.266;7.402;2023-04-08T03:04:11;99781.56;;;7.64;100.00
43147;BME280;28752;48.266;7.402;2023-04-08T03:06:36;99781.19;;;7.46;100.00
43147;BME280;28752;48.266;7.402;2023-04-08T03:09:02;99783.34;;;7.53;100.00
43147;BME280;28752;48.266;7.402;2023-04-08T03:11:27;99780.34;;;7.57;100.00
43147;BME280;28752;48.266;7.402;2023-04-08T03:13:52;99778.69;;;7.56;100.00
43147;BME280;28752;48.266;7.402;2023-04-08T03:16:18;99783.94;;;7.45;100.00
43147;BME280;28752;48.266;7.402;2023-04-08T03:18:43;99781.53;;;7.42;100.00
43147;BME280;28752;48.266;7.402;2023-04-08T03:21:09;99784.16;;;7.42;100.00
43147;BME280;28752;48.266;7.402;2023-04-08T03:23:34;99790.75;;;7.36;100.00
43147;BME280;28752;48.266;7.402;2023-04-08T03:26:00;99792.19;;;7.29;100.00
43147;BME280;28752;48.266;7.402;2023-04-08T03:28:25;99790.00;;;7.23;100.00
43147;BME280;28752;48.266;7.402;2023-04-08T03:30:51;99799.91;;;7.19;100.00
43147;BME280;28752;48.266;7.402;2023-04-08T03:33:16;99799.81;;;7.21;100.00
43147;BME280;28752;48.266;7.402;2023-04-08T03:35:42;99799.19;;;7.17;100.00
43147;BME280;28752;48.266;7.402;2023-04-08T03:38:07;99799.56;;;7.13;100.00
43147;BME280;28752;48.266;7.402;2023-04-08T03:40:33;99802.75;;;7.05;100.00
43147;BME280;28752;48.266;7.402;2023-04-08T03:42:58;99799.38;;;7.03;100.00
43147;BME280;28752;48.266;7.402;2023-04-08T03:45:23;99804.88;;;7.00;100.00
43147;BME280;28752;48.266;7.402;2023-04-08T03:47:49;99794.78;;;6.93;100.00
43147;BME280;28752;48.266;7.402;2023-04-08T03:50:14;99797.31;;;6.95;100.00
43147;BME280;28752;48.266;7.402;2023-04-08T03:52:40;99801.97;;;6.91;100.00
43147;BME280;28752;48.266;7.402;2023-04-08T03:55:05;99796.22;;;6.86;100.00
43147;BME280;28752;48.266;7.402;2023-04-08T03:57:31;99798.97;;;6.85;100.00
43147;BME280;28752;48.266;7.402;2023-04-08T03:59:56;99798.34;;;6.81;100.00
43147;BME280;28752;48.266;7.402;2023-04-08T04:02:22;99791.28;;;6.82;100.00
43147;BME280;28752;48.266;7.402;2023-04-08T04:04:47;99784.06;;;6.72;100.00
43147;BME280;28752;48.266;7.402;2023-04-08T04:07:12;99788.38;;;6.73;100.00
43147;BME280;28752;48.266;7.402;2023-04-08T04:09:38;99795.31;;;6.74;100.00
43147;BME280;28752;48.266;7.402;2023-04-08T04:12:03;99795.81;;;6.80;100.00
43147;BME280;28752;48.266;7.402;2023-04-08T04:14:28;99793.47;;;6.88;100.00
43147;BME280;28752;48.266;7.402;2023-04-08T04:16:54;99799.94;;;6.95;100.00
43147;BME280;28752;48.266;7.402;2023-04-08T04:19:19;99794.84;;;7.05;100.00
43147;BME280;28752;48.266;7.402;2023-04-08T04:21:44;99781.53;;;6.95;100.00
43147;BME280;28752;48.266;7.402;2023-04-08T04:24:10;99803.22;;;6.99;100.00
43147;BME280;28752;48.266;7.402;2023-04-08T04:26:35;99804.63;;;7.03;100.00
43147;BME280;28752;48.266;7.402;2023-04-08T04:29:00;99799.59;;;7.00;100.00
43147;BME280;28752;48.266;7.402;2023-04-08T04:31:26;99783.22;;;6.72;100.00
43147;BME280;28752;48.266;7.402;2023-04-08T04:33:51;99805.06;;;6.85;100.00
43147;BME280;28752;48.266;7.402;2023-04-08T04:36:17;99811.28;;;6.84;100.00
43147;BME280;28752;48.266;7.402;2023-04-08T04:38:43;99816.41;;;6.86;100.00
43147;BME280;28752;48.266;7.402;2023-04-08T04:41:08;99819.63;;;6.78;100.00
43147;BME280;28752;48.266;7.402;2023-04-08T04:43:34;99819.97;;;6.73;100.00
43147;BME280;28752;48.266;7.402;2023-04-08T04:45:59;99816.38;;;6.74;100.00
43147;BME280;28752;48.266;7.402;2023-04-08T04:48:26;99813.34;;;6.68;100.00
43147;BME280;28752;48.266;7.402;2023-04-08T04:50:55;99823.50;;;6.85;100.00
43147;BME280;28752;48.266;7.402;2023-04-08T04:53:21;99819.00;;;6.74;100.00
43147;BME280;28752;48.266;7.402;2023-04-08T04:55:46;99824.97;;;6.89;100.00
43147;BME280;28752;48.266;7.402;2023-04-08T04:58:12;99821.34;;;6.90;100.00
43147;BME280;28752;48.266;7.402;2023-04-08T05:00:37;99834.91;;;6.97;100.00
43147;BME280;28752;48.266;7.402;2023-04-08T05:03:02;99835.63;;;6.99;100.00
43147;BME280;28752;48.266;7.402;2023-04-08T05:05:28;99835.88;;;6.96;100.00
43147;BME280;28752;48.266;7.402;2023-04-08T05:07:53;99834.16;;;6.95;100.00
43147;BME280;28752;48.266;7.402;2023-04-08T05:10:18;99841.63;;;7.01;100.00
43147;BME280;28752;48.266;7.402;2023-04-08T05:12:44;99844.88;;;7.05;100.00
43147;BME280;28752;48.266;7.402;2023-04-08T05:15:09;99844.03;;;7.04;100.00
43147;BME280;28752;48.266;7.402;2023-04-08T05:17:35;99849.34;;;7.16;100.00
43147;BME280;28752;48.266;7.402;2023-04-08T05:20:00;99849.06;;;7.07;100.00
43147;BME280;28752;48.266;7.402;2023-04-08T05:22:26;99844.44;;;7.11;100.00
43147;BME280;28752;48.266;7.402;2023-04-08T05:24:51;99853.03;;;7.13;100.00
43147;BME280;28752;48.266;7.402;2023-04-08T05:27:16;99851.66;;;7.20;100.00
43147;BME280;28752;48.266;7.402;2023-04-08T05:29:42;99845.22;;;7.24;100.00
43147;BME280;28752;48.266;7.402;2023-04-08T05:32:07;99847.88;;;7.36;100.00
43147;BME280;28752;48.266;7.402;2023-04-08T05:34:32;99846.94;;;7.48;100.00
43147;BME280;28752;48.266;7.402;2023-04-08T05:36:58;99850.81;;;7.67;100.00
43147;BME280;28752;48.266;7.402;2023-04-08T05:39:23;99849.91;;;7.79;100.00
43147;BME280;28752;48.266;7.402;2023-04-08T05:41:48;99836.47;;;7.93;100.00
43147;BME280;28752;48.266;7.402;2023-04-08T05:44:14;99818.00;;;8.05;99.37
43147;BME280;28752;48.266;7.402;2023-04-08T05:46:39;99848.25;;;8.46;98.22
43147;BME280;28752;48.266;7.402;2023-04-08T05:49:05;99857.28;;;8.76;96.19
43147;BME280;28752;48.266;7.402;2023-04-08T05:51:30;99854.91;;;8.73;95.26
43147;BME280;28752;48.266;7.402;2023-04-08T05:53:55;99863.69;;;8.62;95.69
43147;BME280;28752;48.266;7.402;2023-04-08T05:56:21;99851.06;;;8.65;94.67
43147;BME280;28752;48.266;7.402;2023-04-08T05:58:46;99859.34;;;8.72;94.38
43147;BME280;28752;48.266;7.402;2023-04-08T06:01:12;99869.13;;;8.93;93.65
43147;BME280;28752;48.266;7.402;2023-04-08T06:03:37;99865.59;;;9.15;92.18
43147;BME280;28752;48.266;7.402;2023-04-08T06:06:03;99870.53;;;9.40;90.03
43147;BME280;28752;48.266;7.402;2023-04-08T06:08:28;99861.13;;;9.69;88.16
43147;BME280;28752;48.266;7.402;2023-04-08T06:10:53;99867.00;;;10.03;85.11
43147;BME280;28752;48.266;7.402;2023-04-08T06:13:19;99874.63;;;10.18;84.16
43147;BME280;28752;48.266;7.402;2023-04-08T06:15:46;99869.09;;;10.30;82.74
43147;BME280;28752;48.266;7.402;2023-04-08T06:18:13;99876.00;;;10.22;83.04
43147;BME280;28752;48.266;7.402;2023-04-08T06:20:39;99874.91;;;10.24;84.06
43147;BME280;28752;48.266;7.402;2023-04-08T06:23:04;99868.16;;;10.10;84.78
43147;BME280;28752;48.266;7.402;2023-04-08T06:25:29;99875.91;;;10.23;85.22
43147;BME280;28752;48.266;7.402;2023-04-08T06:27:55;99870.72;;;10.22;85.12
43147;BME280;28752;48.266;7.402;2023-04-08T06:30:20;99869.63;;;10.24;84.90
43147;BME280;28752;48.266;7.402;2023-04-08T06:32:45;99880.59;;;10.41;85.40
43147;BME280;28752;48.266;7.402;2023-04-08T06:35:11;99877.97;;;10.51;85.65
43147;BME280;28752;48.266;7.402;2023-04-08T06:37:37;99879.56;;;10.63;83.99
43147;BME280;28752;48.266;7.402;2023-04-08T06:40:04;99881.38;;;10.72;83.28
43147;BME280;28752;48.266;7.402;2023-04-08T06:42:29;99878.03;;;10.70;83.76
43147;BME280;28752;48.266;7.402;2023-04-08T06:44:55;99879.34;;;10.86;82.52
43147;BME280;28752;48.266;7.402;2023-04-08T06:47:20;99880.59;;;11.01;81.16
43147;BME280;28752;48.266;7.402;2023-04-08T06:49:46;99873.06;;;11.06;80.81
43147;BME280;28752;48.266;7.402;2023-04-08T06:52:11;99885.19;;;10.99;79.76
43147;BME280;28752;48.266;7.402;2023-04-08T06:54:36;99884.09;;;10.92;80.10
43147;BME280;28752;48.266;7.402;2023-04-08T06:57:02;99888.38;;;10.93;79.58
43147;BME280;28752;48.266;7.402;2023-04-08T06:59:28;99885.31;;;10.88;79.77
43147;BME280;28752;48.266;7.402;2023-04-08T07:01:54;99878.66;;;10.93;81.14
43147;BME280;28752;48.266;7.402;2023-04-08T07:04:19;99891.47;;;11.08;81.37
43147;BME280;28752;48.266;7.402;2023-04-08T07:06:45;99885.22;;;11.18;79.93
43147;BME280;28752;48.266;7.402;2023-04-08T07:09:11;99900.84;;;11.41;79.29
43147;BME280;28752;48.266;7.402;2023-04-08T07:11:36;99881.59;;;11.39;78.81
43147;BME280;28752;48.266;7.402;2023-04-08T07:14:01;99900.00;;;11.31;79.38
43147;BME280;28752;48.266;7.402;2023-04-08T07:16:27;99901.13;;;11.18;78.34
43147;BME280;28752;48.266;7.402;2023-04-08T07:18:52;99905.28;;;11.11;78.67
43147;BME280;28752;48.266;7.402;2023-04-08T07:21:18;99903.63;;;11.20;78.57
43147;BME280;28752;48.266;7.402;2023-04-08T07:23:43;99897.63;;;11.47;77.60
43147;BME280;28752;48.266;7.402;2023-04-08T07:26:09;99912.84;;;11.45;76.63
43147;BME280;28752;48.266;7.402;2023-04-08T07:28:34;99910.72;;;11.98;76.06
43147;BME280;28752;48.266;7.402;2023-04-08T07:31:10;99911.84;;;12.42;74.83
43147;BME280;28752;48.266;7.402;2023-04-08T07:33:36;99896.50;;;12.36;72.13
43147;BME280;28752;48.266;7.402;2023-04-08T07:48:17;99930.22;;;13.55;70.03
43147;BME280;28752;48.266;7.402;2023-04-08T07:50:43;99921.44;;;13.81;67.68
43147;BME280;28752;48.266;7.402;2023-04-08T07:53:10;99925.31;;;13.86;65.67
43147;BME280;28752;48.266;7.402;2023-04-08T07:55:35;99920.75;;;13.97;66.54
43147;BME280;28752;48.266;7.402;2023-04-08T07:58:01;99935.19;;;13.94;67.42
43147;BME280;28752;48.266;7.402;2023-04-08T08:00:26;99927.69;;;13.72;65.68
43147;BME280;28752;48.266;7.402;2023-04-08T08:02:54;99932.41;;;13.42;66.57
43147;BME280;28752;48.266;7.402;2023-04-08T08:05:19;99911.91;;;13.52;67.54
43147;BME280;28752;48.266;7.402;2023-04-08T08:07:45;99926.09;;;13.79;67.11
43147;BME280;28752;48.266;7.402;2023-04-08T08:10:10;99924.94;;;13.81;66.82
43147;BME280;28752;48.266;7.402;2023-04-08T08:12:36;99931.00;;;13.92;66.70
43147;BME280;28752;48.266;7.402;2023-04-08T08:15:02;99930.72;;;13.59;64.57
43147;BME280;28752;48.266;7.402;2023-04-08T08:17:27;99926.63;;;13.46;65.92
43147;BME280;28752;48.266;7.402;2023-04-08T08:19:55;99930.63;;;13.14;65.39
43147;BME280;28752;48.266;7.402;2023-04-08T08:22:21;99938.78;;;12.57;67.17
43147;BME280;28752;48.266;7.402;2023-04-08T08:24:46;99944.22;;;12.18;69.54
43147;BME280;28752;48.266;7.402;2023-04-08T08:27:12;99941.31;;;12.02;70.44
43147;BME280;28752;48.266;7.402;2023-04-08T08:29:37;99940.91;;;11.77;72.21
43147;BME280;28752;48.266;7.402;2023-04-08T08:32:03;99947.88;;;11.88;72.71
43147;BME280;28752;48.266;7.402;2023-04-08T08:34:28;99952.50;;;11.96;72.77
43147;BME280;28752;48.266;7.402;2023-04-08T08:36:54;99947.19;;;11.86;72.74
43147;BME280;28752;48.266;7.402;2023-04-08T08:39:20;99943.97;;;11.72;73.92
43147;BME280;28752;48.266;7.402;2023-04-08T08:41:45;99943.16;;;11.52;74.53
43147;BME280;28752;48.266;7.402;2023-04-08T08:44:11;99955.84;;;11.78;74.36
43147;BME280;28752;48.266;7.402;2023-04-08T08:46:42;99954.03;;;11.79;74.99
43147;BME280;28752;48.266;7.402;2023-04-08T08:49:08;99953.16;;;11.88;75.39
43147;BME280;28752;48.266;7.402;2023-04-08T08:51:33;99966.19;;;11.81;76.02
43147;BME280;28752;48.266;7.402;2023-04-08T08:54:02;99955.16;;;11.86;75.99
43147;BME280;28752;48.266;7.402;2023-04-08T08:56:28;99961.81;;;11.70;75.44
43147;BME280;28752;48.266;7.402;2023-04-08T08:58:53;99956.78;;;11.87;75.26
43147;BME280;28752;48.266;7.402;2023-04-08T09:01:35;99956.66;;;11.69;75.42
43147;BME280;28752;48.266;7.402;2023-04-08T09:04:14;99961.25;;;11.77;75.26
43147;BME280;28752;48.266;7.402;2023-04-08T09:06:41;99962.53;;;11.82;75.03
43147;BME280;28752;48.266;7.402;2023-04-08T09:09:07;99960.31;;;11.97;75.13
43147;BME280;28752;48.266;7.402;2023-04-08T09:11:37;99964.34;;;12.11;73.57
43147;BME280;28752;48.266;7.402;2023-04-08T09:14:04;99963.72;;;12.37;73.80
43147;BME280;28752;48.266;7.402;2023-04-08T09:16:31;99967.78;;;12.31;71.12
43147;BME280;28752;48.266;7.402;2023-04-08T09:19:09;99974.03;;;12.50;70.45
43147;BME280;28752;48.266;7.402;2023-04-08T09:21:35;99973.47;;;12.46;69.76
43147;BME280;28752;48.266;7.402;2023-04-08T09:24:01;99963.28;;;12.51;69.08
43147;BME280;28752;48.266;7.402;2023-04-08T09:26:26;99969.56;;;12.50;69.66
43147;BME280;28752;48.266;7.402;2023-04-08T09:29:07;99972.59;;;12.55;69.31
43147;BME280;28752;48.266;7.402;2023-04-08T09:31:38;99959.25;;;12.75;68.33
43147;BME280;28752;48.266;7.402;2023-04-08T09:34:13;99975.44;;;12.82;68.24
43147;BME280;28752;48.266;7.402;2023-04-08T09:36:44;99974.25;;;13.22;67.38
43147;BME280;28752;48.266;7.402;2023-04-08T09:39:10;99964.34;;;13.14;66.43
43147;BME280;28752;48.266;7.402;2023-04-08T09:41:37;99967.19;;;13.30;65.89
43147;BME280;28752;48.266;7.402;2023-04-08T09:44:05;99980.97;;;13.16;66.16
43147;BME280;28752;48.266;7.402;2023-04-08T09:49:28;99983.81;;;12.87;66.71
43147;BME280;28752;48.266;7.402;2023-04-08T09:52:06;99973.25;;;12.95;66.67
43147;BME280;28752;48.266;7.402;2023-04-08T09:54:54;99978.47;;;13.14;66.89
43147;BME280;28752;48.266;7.402;2023-04-08T10:00:10;99987.38;;;13.23;66.53
43147;BME280;28752;48.266;7.402;2023-04-08T10:05:30;99988.66;;;13.19;63.93
43147;BME280;28752;48.266;7.402;2023-04-08T10:07:56;99984.34;;;13.46;63.48
43147;BME280;28752;48.266;7.402;2023-04-08T10:10:25;99987.78;;;13.56;63.80
43147;BME280;28752;48.266;7.402;2023-04-08T10:12:51;99981.69;;;13.64;63.45
43147;BME280;28752;48.266;7.402;2023-04-08T10:15:27;99981.81;;;14.51;62.63
43147;BME280;28752;48.266;7.402;2023-04-08T10:17:53;99985.34;;;14.07;62.35
43147;BME280;28752;48.266;7.402;2023-04-08T10:23:04;99971.69;;;14.28;62.06
43147;BME280;28752;48.266;7.402;2023-04-08T10:41:10;99975.84;;;15.34;58.09
43147;BME280;28752;48.266;7.402;2023-04-08T10:43:45;99980.16;;;15.27;59.41
43147;BME280;28752;48.266;7.402;2023-04-08T10:46:11;99970.41;;;15.01;58.66
43147;BME280;28752;48.266;7.402;2023-04-08T10:48:36;99969.75;;;15.07;58.69
43147;BME280;28752;48.266;7.402;2023-04-08T10:51:03;99965.00;;;14.77;58.14
43147;BME280;28752;48.266;7.402;2023-04-08T10:53:37;99969.44;;;14.68;58.05
43147;BME280;28752;48.266;7.402;2023-04-08T10:56:11;99972.88;;;14.60;59.23
43147;BME280;28752;48.266;7.402;2023-04-08T10:58:53;99971.78;;;14.71;58.60
43147;BME280;28752;48.266;7.402;2023-04-08T11:01:20;99974.13;;;14.74;59.22
43147;BME280;28752;48.266;7.402;2023-04-08T11:03:46;99971.69;;;14.28;60.41
43147;BME280;28752;48.266;7.402;2023-04-08T11:06:11;99968.28;;;14.62;58.95
43147;BME280;28752;48.266;7.402;2023-04-08T11:08:37;99966.91;;;14.92;59.33
43147;BME280;28752;48.266;7.402;2023-04-08T11:11:04;99963.00;;;14.79;58.94
43147;BME280;28752;48.266;7.402;2023-04-08T11:13:33;99962.78;;;14.64;58.79
43147;BME280;28752;48.266;7.402;2023-04-08T11:15:59;99965.34;;;14.82;58.55
43147;BME280;28752;48.266;7.402;2023-04-08T11:18:24;99963.06;;;14.95;56.71
43147;BME280;28752;48.266;7.402;2023-04-08T11:20:51;99958.81;;;15.27;56.08
43147;BME280;28752;48.266;7.402;2023-04-08T11:23:16;99963.97;;;15.20;55.75
43147;BME280;28752;48.266;7.402;2023-04-08T11:25:44;99957.66;;;15.38;54.70
43147;BME280;28752;48.266;7.402;2023-04-08T11:28:10;99946.19;;;15.29;55.33
43147;BME280;28752;48.266;7.402;2023-04-08T11:30:37;99960.66;;;14.75;55.85
43147;BME280;28752;48.266;7.402;2023-04-08T11:33:02;99960.66;;;14.75;56.13
43147;BME280;28752;48.266;7.402;2023-04-08T11:35:28;99954.91;;;14.97;54.73
43147;BME280;28752;48.266;7.402;2023-04-08T11:37:55;99953.00;;;14.46;55.77
43147;BME280;28752;48.266;7.402;2023-04-08T11:40:21;99955.22;;;14.85;54.17
43147;BME280;28752;48.266;7.402;2023-04-08T11:42:48;99956.63;;;15.14;54.44
43147;BME280;28752;48.266;7.402;2023-04-08T11:45:15;99948.84;;;15.29;54.63
43147;BME280;28752;48.266;7.402;2023-04-08T11:47:42;99950.13;;;15.08;55.22
43147;BME280;28752;48.266;7.402;2023-04-08T11:50:07;99951.78;;;15.18;52.93
43147;BME280;28752;48.266;7.402;2023-04-08T11:55:20;99952.22;;;14.97;53.66
43147;BME280;28752;48.266;7.402;2023-04-08T11:57:46;99952.50;;;15.20;53.85
43147;BME280;28752;48.266;7.402;2023-04-08T12:00:12;99939.91;;;14.96;53.18
43147;BME280;28752;48.266;7.402;2023-04-08T12:02:38;99934.06;;;14.92;52.78
43147;BME280;28752;48.266;7.402;2023-04-08T12:05:04;99939.53;;;14.82;53.83
43147;BME280;28752;48.266;7.402;2023-04-08T12:07:30;99943.63;;;15.11;53.75
43147;BME280;28752;48.266;7.402;2023-04-08T12:09:56;99949.34;;;14.82;53.54
43147;BME280;28752;48.266;7.402;2023-04-08T12:12:22;99946.34;;;14.85;52.18
43147;BME280;28752;48.266;7.402;2023-04-08T12:14:47;99945.75;;;15.07;50.54
43147;BME280;28752;48.266;7.402;2023-04-08T12:17:12;99932.66;;;15.31;49.13
43147;BME280;28752;48.266;7.402;2023-04-08T12:19:38;99939.19;;;15.44;49.33
43147;BME280;28752;48.266;7.402;2023-04-08T12:22:03;99939.22;;;15.61;48.28
43147;BME280;28752;48.266;7.402;2023-04-08T12:24:28;99934.84;;;15.68;48.45
43147;BME280;28752;48.266;7.402;2023-04-08T12:26:54;99940.72;;;15.80;47.63
43147;BME280;28752;48.266;7.402;2023-04-08T12:29:20;99936.00;;;16.15;47.93
43147;BME280;28752;48.266;7.402;2023-04-08T12:31:45;99932.88;;;15.70;47.92
43147;BME280;28752;48.266;7.402;2023-04-08T12:34:11;99943.38;;;16.05;48.38
43147;BME280;28752;48.266;7.402;2023-04-08T12:36:37;99937.56;;;15.93;47.44
43147;BME280;28752;48.266;7.402;2023-04-08T12:39:03;99940.88;;;16.03;47.41
43147;BME280;28752;48.266;7.402;2023-04-08T12:41:28;99943.38;;;15.72;47.38
43147;BME280;28752;48.266;7.402;2023-04-08T12:43:54;99939.84;;;15.71;46.39
43147;BME280;28752;48.266;7.402;2023-04-08T12:46:19;99932.56;;;15.90;46.21
43147;BME280;28752;48.266;7.402;2023-04-08T12:48:45;99933.06;;;15.85;45.96
43147;BME280;28752;48.266;7.402;2023-04-08T12:51:12;99930.34;;;15.52;46.17
43147;BME280;28752;48.266;7.402;2023-04-08T12:53:37;99922.50;;;15.34;46.63
43147;BME280;28752;48.266;7.402;2023-04-08T12:56:03;99934.53;;;15.55;47.24
43147;BME280;28752;48.266;7.402;2023-04-08T12:58:29;99925.19;;;15.51;47.44
43147;BME280;28752;48.266;7.402;2023-04-08T13:00:54;99927.19;;;15.73;46.73
43147;BME280;28752;48.266;7.402;2023-04-08T13:03:20;99920.34;;;15.71;47.14
43147;BME280;28752;48.266;7.402;2023-04-08T13:05:45;99930.50;;;15.34;47.34
43147;BME280;28752;48.266;7.402;2023-04-08T13:08:11;99929.28;;;15.12;46.42
43147;BME280;28752;48.266;7.402;2023-04-08T13:10:37;99925.13;;;15.09;47.23
43147;BME280;28752;48.266;7.402;2023-04-08T13:13:02;99922.25;;;15.03;48.80
43147;BME280;28752;48.266;7.402;2023-04-08T13:15:27;99917.41;;;14.90;49.73
43147;BME280;28752;48.266;7.402;2023-04-08T13:17:53;99922.66;;;14.73;49.39
43147;BME280;28752;48.266;7.402;2023-04-08T13:20:18;99924.25;;;14.58;49.74
43147;BME280;28752;48.266;7.402;2023-04-08T13:22:43;99925.16;;;14.40;49.90
43147;BME280;28752;48.266;7.402;2023-04-08T13:25:09;99920.28;;;14.36;51.58
43147;BME280;28752;48.266;7.402;2023-04-08T13:27:34;99913.47;;;14.33;50.50
43147;BME280;28752;48.266;7.402;2023-04-08T13:30:00;99908.00;;;14.43;51.20
43147;BME280;28752;48.266;7.402;2023-04-08T13:32:25;99913.16;;;14.36;49.47
43147;BME280;28752;48.266;7.402;2023-04-08T13:34:51;99909.59;;;14.28;50.01
43147;BME280;28752;48.266;7.402;2023-04-08T13:37:16;99908.41;;;14.56;49.38
43147;BME280;28752;48.266;7.402;2023-04-08T13:39:41;99903.09;;;14.56;47.37
43147;BME280;28752;48.266;7.402;2023-04-08T13:42:07;99906.13;;;14.62;49.84
43147;BME280;28752;48.266;7.402;2023-04-08T13:44:32;99903.50;;;14.70;48.50
43147;BME280;28752;48.266;7.402;2023-04-08T13:46:57;99900.53;;;14.81;47.85